Time;durP1;ratioP1;P1;durP2;ratioP2;P2;SDS_P1;SDS_P2;PMS_P1;PMS_P2;Temp;Humidity;BMP_temperature;BMP_pressure;BME280_temperature;BME280_humidity;BME280_pressure;Samples;Min_cycle;Max_cycle;Signal;HPM_P1;HPM_P2
2022/10/21 00:01:49;;;;;;;10.20;6.73;;;;;;;7.29;100.00;100850.00;4883643;29;20044;-79
2022/10/21 00:04:16;;;;;;;11.07;6.73;;;;;;;7.21;100.00;100847.41;4902652;29;20048;-79
2022/10/21 00:06:42;;;;;;;13.67;7.73;;;;;;;7.13;100.00;100848.31;4917888;29;20135;-78
2022/10/21 00:09:09;;;;;;;11.90;6.93;;;;;;;7.21;100.00;100842.16;4902006;29;20048;-79
2022/10/21 00:11:36;;;;;;;13.03;7.37;;;;;;;7.19;100.00;100843.91;4907235;29;20048;-80
2022/10/21 00:14:02;;;;;;;9.57;6.17;;;;;;;7.10;100.00;100846.59;4929502;29;20047;-81
2022/10/21 00:16:29;;;;;;;12.50;6.77;;;;;;;7.12;100.00;100844.81;4891955;29;20076;-80
2022/10/21 00:18:55;;;;;;;10.77;6.73;;;;;;;7.07;100.00;100832.59;4909104;29;20149;-80
2022/10/21 00:21:22;;;;;;;10.97;6.80;;;;;;;7.11;100.00;100824.69;4924259;29;20048;-80
2022/10/21 00:23:49;;;;;;;10.47;6.70;;;;;;;7.08;100.00;100837.84;4927884;29;20048;-81
2022/10/21 00:26:17;;;;;;;10.30;6.97;;;;;;;6.96;100.00;100819.47;4925802;29;20044;-81
2022/10/21 00:28:43;;;;;;;10.77;6.97;;;;;;;6.97;100.00;100810.72;4911843;29;20119;-81
2022/10/21 00:31:12;;;;;;;11.17;6.77;;;;;;;6.88;100.00;100805.50;4911774;29;20055;-79
2022/10/21 00:33:39;;;;;;;10.77;7.17;;;;;;;7.02;100.00;100811.59;4911380;29;20040;-79
2022/10/21 00:36:13;;;;;;;12.70;7.40;;;;;;;6.83;100.00;100815.16;4911506;29;20091;-81
2022/10/21 00:38:41;;;;;;;12.07;7.22;;;;;;;6.92;100.00;100802.00;4897056;29;20048;-81
2022/10/21 00:41:07;;;;;;;11.33;7.57;;;;;;;6.98;100.00;100800.22;4925542;29;20040;-79
2022/10/21 00:44:00;;;;;;;12.53;7.27;;;;;;;6.91;100.00;100797.63;4913272;29;20036;-80
2022/10/21 00:46:34;;;;;;;12.53;7.67;;;;;;;7.04;100.00;100805.44;4920270;29;20054;-80
2022/10/21 00:49:01;;;;;;;;;;;;;;;6.86;100.00;100802.00;4896101;29;20052;-80
2022/10/21 00:51:29;;;;;;;14.73;7.23;;;;;;;6.90;100.00;100795.88;4910050;29;19923;-81
2022/10/21 00:53:56;;;;;;;11.50;6.47;;;;;;;6.94;100.00;100794.97;4926120;29;20044;-80
2022/10/21 00:56:26;;;;;;;12.23;7.90;;;;;;;6.86;100.00;100818.63;4907522;29;20045;-80
2022/10/21 00:58:54;;;;;;;12.07;6.90;;;;;;;6.89;100.00;100799.34;4909278;29;20044;-80
2022/10/21 01:01:21;;;;;;;14.80;7.83;;;;;;;7.04;100.00;100796.69;4920476;29;20036;-81
2022/10/21 01:03:49;;;;;;;12.93;7.47;;;;;;;6.81;100.00;100802.03;4898189;29;20044;-82
2022/10/21 01:06:18;;;;;;;14.33;8.33;;;;;;;6.93;100.00;100815.13;4883217;29;20066;-81
2022/10/21 01:08:45;;;;;;;13.77;8.90;;;;;;;6.91;100.00;100811.63;4898297;29;20048;-82
2022/10/21 01:11:15;;;;;;;12.03;7.53;;;;;;;6.85;100.00;100801.13;4900292;29;20048;-82
2022/10/21 01:14:08;;;;;;;12.13;7.43;;;;;;;6.98;100.00;100787.09;4882916;29;20100;-82
2022/10/21 01:16:56;;;;;;;13.83;7.70;;;;;;;7.01;100.00;100779.19;4900912;29;20048;-82
2022/10/21 01:19:59;;;;;;;13.23;8.50;;;;;;;6.95;100.00;100791.47;4903304;29;20044;-81
2022/10/21 01:22:38;;;;;;;11.53;7.50;;;;;;;6.96;100.00;100777.44;4898295;29;20101;-81
2022/10/21 01:25:30;;;;;;;13.93;8.60;;;;;;;7.13;100.00;100778.25;4867189;29;20424;-81
2022/10/21 01:28:02;;;;;;;13.17;7.37;;;;;;;7.04;100.00;100771.28;4914842;29;20044;-81
2022/10/21 01:30:53;;;;;;;14.47;7.40;;;;;;;7.07;100.00;100765.16;4923608;29;20055;-81
2022/10/21 01:33:52;;;;;;;13.23;7.53;;;;;;;7.06;100.00;100758.13;4902859;29;20111;-81
2022/10/21 01:36:28;;;;;;;13.17;7.83;;;;;;;6.98;100.00;100755.56;4897928;29;20422;-81
2022/10/21 01:39:18;;;;;;;14.43;8.00;;;;;;;7.08;100.00;100753.78;4899384;29;20076;-81
2022/10/21 01:41:53;;;;;;;14.63;7.87;;;;;;;7.15;100.00;100763.38;4899670;29;20119;-81
2022/10/21 01:44:36;;;;;;;12.80;7.97;;;;;;;7.17;100.00;100753.72;4884840;29;20044;-80
2022/10/21 01:47:11;;;;;;;12.47;7.40;;;;;;;7.22;100.00;100758.94;4900049;29;20048;-81
2022/10/21 01:49:46;;;;;;;13.77;7.33;;;;;;;7.15;100.00;100763.38;4902410;29;20036;-81
2022/10/21 01:52:14;;;;;;;12.20;7.90;;;;;;;7.15;100.00;100760.75;4885646;29;20040;-81
2022/10/21 01:54:44;;;;;;;12.93;8.07;;;;;;;7.20;100.00;100765.97;4885048;29;20067;-82
2022/10/21 01:57:14;;;;;;;11.03;7.50;;;;;;;7.29;100.00;100761.53;4900539;29;20108;-81
2022/10/21 01:59:42;;;;;;;12.03;7.97;;;;;;;7.32;100.00;100752.78;4886693;29;20103;-82
2022/10/21 02:02:09;;;;;;;14.00;8.03;;;;;;;7.27;100.00;100744.91;4899757;29;20040;-82
2022/10/21 02:04:37;;;;;;;13.20;7.83;;;;;;;7.24;100.00;100739.69;4881450;29;20545;-81
2022/10/21 02:07:04;;;;;;;14.03;7.90;;;;;;;7.39;100.00;100732.56;4897213;29;20048;-81
2022/10/21 02:09:31;;;;;;;14.37;8.13;;;;;;;7.35;100.00;100736.97;4899868;29;20095;-82
2022/10/21 02:12:03;;;;;;;11.90;7.97;;;;;;;7.33;100.00;100736.13;4900666;29;20082;-81
2022/10/21 02:14:40;;;;;;;12.33;8.03;;;;;;;7.41;100.00;100733.44;4900248;29;20100;-82
2022/10/21 02:17:10;;;;;;;11.87;8.03;;;;;;;7.42;100.00;100735.19;4899522;29;20632;-82
2022/10/21 02:19:37;;;;;;;14.80;8.10;;;;;;;7.32;100.00;100726.50;4900395;29;20048;-82
2022/10/21 02:22:05;;;;;;;13.17;8.00;;;;;;;7.38;100.00;100722.94;4885433;29;20044;-82
2022/10/21 02:24:36;;;;;;;12.40;8.10;;;;;;;7.41;100.00;100712.44;4890346;29;20474;-82
2022/10/21 02:27:03;;;;;;;14.67;8.37;;;;;;;7.41;100.00;100707.16;4884443;29;20056;-81
2022/10/21 02:29:34;;;;;;;13.80;7.93;;;;;;;7.33;100.00;100726.47;4906175;29;20065;-80
2022/10/21 02:32:15;;;;;;;13.97;7.80;;;;;;;7.40;100.00;100722.06;4895372;29;20049;-79
2022/10/21 02:34:47;;;;;;;13.93;8.90;;;;;;;7.51;100.00;100716.72;4888151;29;20044;-79
2022/10/21 02:37:17;;;;;;;11.50;8.00;;;;;;;7.30;100.00;100715.09;5013199;23;20086;-79
2022/10/21 02:39:54;;;;;;;12.53;9.00;;;;;;;7.37;100.00;100711.56;5026169;23;20078;-82
2022/10/21 02:42:25;;;;;;;15.00;8.00;;;;;;;7.37;100.00;100718.56;4943095;28;20074;-83
2022/10/21 02:44:52;;;;;;;13.80;8.00;;;;;;;7.47;100.00;100707.09;4938120;29;20106;-82
2022/10/21 02:47:22;;;;;;;11.50;8.23;;;;;;;7.31;100.00;100696.72;4941305;29;20047;-83
2022/10/21 02:49:49;;;;;;;12.03;8.40;;;;;;;7.40;100.00;100690.53;4982957;28;20043;-81
2022/10/21 02:52:16;;;;;;;12.70;8.47;;;;;;;7.48;100.00;100695.69;4936990;29;20103;-82
2022/10/21 02:54:43;;;;;;;16.07;8.93;;;;;;;7.37;100.00;100680.00;4948834;28;20035;-82
2022/10/21 02:57:09;;;;;;;13.57;8.37;;;;;;;7.33;100.00;100673.94;4955573;28;20216;-82
2022/10/21 02:59:36;;;;;;;11.53;8.00;;;;;;;7.34;100.00;100669.53;4926952;28;20097;-82
2022/10/21 03:02:02;;;;;;;12.17;7.57;;;;;;;7.37;100.00;100658.13;4956370;28;20487;-82
2022/10/21 03:04:29;;;;;;;13.87;8.93;;;;;;;7.43;100.00;100651.06;4922867;29;20062;-82
2022/10/21 03:06:56;;;;;;;13.77;8.03;;;;;;;7.37;100.00;100653.72;4920430;29;20043;-81
2022/10/21 03:09:22;;;;;;;14.93;9.00;;;;;;;7.50;100.00;100646.63;4936595;29;20086;-83
2022/10/21 03:11:49;;;;;;;13.13;8.43;;;;;;;7.47;100.00;100646.66;4952270;28;20480;-83
2022/10/21 03:14:16;;;;;;;13.40;9.03;;;;;;;7.38;100.00;100651.97;4920426;29;20039;-83
2022/10/21 03:16:42;;;;;;;18.70;10.07;;;;;;;7.46;100.00;100645.78;4954779;28;20453;-83
2022/10/21 03:19:09;;;;;;;15.37;8.63;;;;;;;7.42;100.00;100651.97;4934310;28;20075;-82
2022/10/21 03:21:36;;;;;;;16.20;8.20;;;;;;;7.42;100.00;100644.06;4919403;29;20056;-83
2022/10/21 03:24:03;;;;;;;14.20;8.77;;;;;;;7.25;100.00;100659.97;4918341;29;20048;-83
2022/10/21 03:26:45;;;;;;;12.10;8.93;;;;;;;7.22;100.00;100653.84;4934040;29;20040;-83
2022/10/21 03:29:11;;;;;;;13.57;8.73;;;;;;;7.14;100.00;100634.63;4902579;29;20047;-83
2022/10/21 03:31:38;;;;;;;12.07;8.83;;;;;;;7.30;100.00;100637.13;4933933;29;20051;-84
2022/10/21 03:34:05;;;;;;;13.80;8.97;;;;;;;7.30;100.00;100628.38;4932912;29;20047;-82
2022/10/21 03:36:31;;;;;;;15.93;8.37;;;;;;;7.20;100.00;100629.34;4918251;29;20066;-83
2022/10/21 03:38:58;;;;;;;14.53;9.63;;;;;;;7.11;100.00;100629.41;4920929;29;20078;-84
2022/10/21 03:41:24;;;;;;;12.87;8.50;;;;;;;7.06;100.00;100624.16;4930204;29;20067;-84
2022/10/21 03:43:51;;;;;;;13.27;8.53;;;;;;;7.03;100.00;100632.94;4921855;29;20124;-84
2022/10/21 03:46:18;;;;;;;15.37;10.30;;;;;;;7.21;100.00;100613.56;4921171;29;20051;-85
2022/10/21 03:48:44;;;;;;;15.23;9.00;;;;;;;7.20;100.00;100616.19;4969700;28;20082;-86
2022/10/21 03:51:11;;;;;;;14.77;9.83;;;;;;;7.30;100.00;100612.59;4922048;29;20047;-85
2022/10/21 03:53:38;;;;;;;14.10;8.77;;;;;;;7.24;100.00;100604.81;4953529;29;20047;-84
2022/10/21 03:56:09;;;;;;;14.73;9.53;;;;;;;7.17;100.00;100609.22;4922967;29;20054;-85
2022/10/21 03:58:36;;;;;;;15.77;9.70;;;;;;;7.13;100.00;100596.09;4937878;29;20516;-84
2022/10/21 04:01:03;;;;;;;12.77;8.90;;;;;;;7.15;100.00;100587.34;4920491;29;20144;-83
2022/10/21 04:03:30;;;;;;;16.83;9.63;;;;;;;7.17;100.00;100589.97;4973148;28;20051;-83
2022/10/21 04:05:56;;;;;;;13.17;8.20;;;;;;;7.12;100.00;100594.38;4944294;28;20081;-84
2022/10/21 04:08:23;;;;;;;15.57;9.70;;;;;;;7.08;100.00;100583.03;4948166;28;20039;-83
2022/10/21 04:10:50;;;;;;;12.70;8.77;;;;;;;7.12;100.00;100587.34;4968464;28;20075;-84
2022/10/21 04:13:16;;;;;;;13.57;9.30;;;;;;;7.11;100.00;100588.25;4924580;29;20039;-84
2022/10/21 04:15:44;;;;;;;24.07;10.57;;;;;;;7.15;100.00;100599.63;4950074;28;20047;-84
2022/10/21 04:18:11;;;;;;;14.80;9.90;;;;;;;7.06;100.00;100587.38;4952075;28;20081;-84
2022/10/21 04:20:37;;;;;;;15.93;9.30;;;;;;;7.12;100.00;100595.22;4953968;28;20132;-83
2022/10/21 04:23:04;;;;;;;14.40;9.37;;;;;;;7.03;100.00;100592.69;4957500;28;20090;-83
2022/10/21 04:25:31;;;;;;;13.77;8.60;;;;;;;6.96;100.00;100604.09;4935808;29;20469;-84
2022/10/21 04:27:57;;;;;;;16.27;9.50;;;;;;;6.92;100.00;100602.41;4954097;29;20142;-83
2022/10/21 04:30:24;;;;;;;17.47;9.70;;;;;;;6.92;100.00;100589.25;4950876;29;20049;-84
2022/10/21 04:32:50;;;;;;;16.60;10.00;;;;;;;6.89;100.00;100597.13;4948828;29;20415;-83
2022/10/21 04:35:17;;;;;;;17.83;11.03;;;;;;;6.88;100.00;100580.50;4937910;29;20071;-81
2022/10/21 04:37:44;;;;;;;14.80;9.43;;;;;;;6.87;100.00;100580.53;4953102;29;20098;-85
2022/10/21 04:40:10;;;;;;;15.03;9.83;;;;;;;6.95;100.00;100576.09;4985619;28;20058;-81
2022/10/21 04:42:37;;;;;;;18.27;10.17;;;;;;;6.96;100.00;100567.34;4954714;28;20075;-82
2022/10/21 04:45:04;;;;;;;15.33;9.73;;;;;;;7.04;100.00;100571.66;4937619;29;20047;-84
2022/10/21 04:47:30;;;;;;;16.00;9.47;;;;;;;6.95;100.00;100565.59;4924492;29;20105;-83
2022/10/21 04:49:57;;;;;;;15.43;10.23;;;;;;;6.92;100.00;100563.00;4925042;29;20130;-82
2022/10/21 04:52:24;;;;;;;17.90;9.90;;;;;;;6.97;100.00;100553.31;4940074;29;20070;-84
2022/10/21 04:54:50;;;;;;;17.60;10.60;;;;;;;6.92;100.00;100549.88;4955764;28;20496;-83
2022/10/21 04:57:17;;;;;;;17.93;12.07;;;;;;;6.94;100.00;100553.34;4955893;28;20059;-82
2022/10/21 04:59:43;;;;;;;21.10;11.37;;;;;;;6.92;100.00;100548.13;4925071;29;20090;-83
2022/10/21 05:02:10;;;;;;;18.37;11.10;;;;;;;6.82;100.00;100528.06;4927700;29;20044;-83
2022/10/21 05:04:37;;;;;;;18.27;10.50;;;;;;;6.86;100.00;100521.88;4956274;28;20039;-82
2022/10/21 05:07:04;;;;;;;18.33;12.70;;;;;;;6.88;100.00;100524.50;4952853;29;20496;-83
2022/10/21 05:09:30;;;;;;;19.90;12.37;;;;;;;6.88;100.00;100519.25;4952060;28;20140;-83
2022/10/21 05:11:57;;;;;;;20.57;13.00;;;;;;;6.85;100.00;100506.16;4938919;29;20639;-83
2022/10/21 05:14:23;;;;;;;18.97;11.17;;;;;;;6.86;100.00;100500.00;4945556;28;20074;-84
2022/10/21 05:16:50;;;;;;;18.47;11.57;;;;;;;6.83;100.00;100502.66;4940255;28;20070;-82
2022/10/21 05:19:17;;;;;;;23.03;11.93;;;;;;;6.75;100.00;100503.59;4952984;29;20142;-84
2022/10/21 05:21:45;;;;;;;20.13;11.90;;;;;;;6.82;100.00;100495.69;4954320;28;20856;-84
2022/10/21 05:24:13;;;;;;;15.97;10.70;;;;;;;6.76;100.00;100499.22;4951155;29;20138;-83
2022/10/21 05:26:40;;;;;;;19.70;11.77;;;;;;;6.84;100.00;100499.16;4954827;28;20051;-83
2022/10/21 05:29:07;;;;;;;17.63;11.03;;;;;;;6.66;100.00;100503.66;4924161;29;20461;-84
2022/10/21 05:31:34;;;;;;;18.43;13.13;;;;;;;6.64;100.00;100508.06;4954817;28;20051;-83
2022/10/21 05:34:00;;;;;;;20.00;12.03;;;;;;;6.78;100.00;100511.44;4941779;29;20043;-85
2022/10/21 05:36:27;;;;;;;20.30;12.53;;;;;;;6.72;100.00;100508.84;4955525;28;20390;-84
2022/10/21 05:38:54;;;;;;;21.90;12.20;;;;;;;6.76;100.00;100504.47;4923226;29;20138;-83
2022/10/21 05:41:20;;;;;;;21.13;12.63;;;;;;;6.64;100.00;100508.06;4938615;29;20047;-83
2022/10/21 05:43:47;;;;;;;17.63;11.77;;;;;;;6.72;100.00;100510.59;4923512;29;20052;-84
2022/10/21 05:46:14;;;;;;;19.97;12.43;;;;;;;6.62;100.00;100515.06;4925387;29;20107;-84
2022/10/21 05:48:40;;;;;;;18.30;11.93;;;;;;;6.73;100.00;100515.00;4937060;29;20540;-82
2022/10/21 05:51:07;;;;;;;18.70;11.63;;;;;;;6.68;100.00;100512.41;4940833;28;20039;-83
2022/10/21 05:53:34;;;;;;;18.50;11.23;;;;;;;6.66;100.00;100501.03;4962369;28;20047;-85
2022/10/21 05:56:03;;;;;;;20.07;11.70;;;;;;;6.74;100.00;100503.63;4916898;29;20097;-82
2022/10/21 05:58:30;;;;;;;19.17;11.07;;;;;;;6.61;100.00;100494.06;4938437;29;20050;-83
2022/10/21 06:00:57;;;;;;;17.33;11.10;;;;;;;6.66;100.00;100497.53;4923868;29;20047;-83
2022/10/21 06:03:30;;;;;;;18.33;11.10;;;;;;;6.65;100.00;100496.69;4945777;28;20511;-84
2022/10/21 06:06:02;;;;;;;19.87;11.77;;;;;;;6.70;100.00;100494.88;4936133;29;20055;-83
2022/10/21 06:08:30;;;;;;;21.97;12.63;;;;;;;6.66;100.00;100490.53;4936249;29;20062;-84
2022/10/21 06:11:06;;;;;;;18.37;11.47;;;;;;;6.64;100.00;100491.41;4986197;28;20475;-82
2022/10/21 06:13:33;;;;;;;20.17;12.00;;;;;;;6.79;100.00;100491.31;4942574;28;20035;-83
2022/10/21 06:16:00;;;;;;;21.33;12.27;;;;;;;6.92;100.00;100492.09;4951133;28;20100;-82
2022/10/21 06:18:27;;;;;;;20.93;12.03;;;;;;;6.93;100.00;100491.22;4919626;29;20083;-83
2022/10/21 06:20:53;;;;;;;17.67;11.70;;;;;;;6.86;100.00;100489.50;4952655;28;20533;-82
2022/10/21 06:23:20;;;;;;;21.03;11.70;;;;;;;6.87;100.00;100491.25;4924066;29;20409;-83
2022/10/21 06:25:58;;;;;;;22.30;13.27;;;;;;;6.89;100.00;100499.97;4954846;29;20054;-83
2022/10/21 06:28:25;;;;;;;23.07;13.13;;;;;;;6.95;100.00;100484.19;4915988;28;20047;-83
2022/10/21 06:30:52;;;;;;;22.03;13.20;;;;;;;7.00;100.00;100492.91;4919850;29;20048;-83
2022/10/21 06:33:19;;;;;;;19.40;11.70;;;;;;;7.05;100.00;100489.31;4954607;28;20815;-83
2022/10/21 06:35:52;;;;;;;16.48;11.13;;;;;;;7.19;100.00;100496.22;4952889;28;20544;-81
2022/10/21 06:38:18;;;;;;;20.83;12.13;;;;;;;7.26;100.00;100490.91;4951699;28;20039;-84
2022/10/21 06:40:47;;;;;;;21.80;13.00;;;;;;;7.20;100.00;100490.94;4937643;29;20043;-81
2022/10/21 06:43:14;;;;;;;20.87;12.10;;;;;;;7.19;100.00;100497.09;4921978;29;20054;-83
2022/10/21 06:45:41;;;;;;;27.60;13.13;;;;;;;7.28;100.00;100514.53;4920923;29;20053;-82
2022/10/21 06:48:08;;;;;;;19.27;11.53;;;;;;;7.33;100.00;100515.38;4967903;28;20544;-83
2022/10/21 06:50:36;;;;;;;17.87;12.07;;;;;;;7.36;100.00;100515.34;4963586;28;20050;-82
2022/10/21 06:53:03;;;;;;;20.93;12.33;;;;;;;7.41;100.00;100510.03;4956451;28;20055;-82
2022/10/21 06:55:29;;;;;;;20.77;11.73;;;;;;;7.54;100.00;100509.88;4951402;29;20568;-83
2022/10/21 06:57:58;;;;;;;20.70;12.20;;;;;;;7.63;100.00;100504.53;4932473;29;20142;-82
2022/10/21 07:00:24;;;;;;;18.30;11.73;;;;;;;7.74;100.00;100511.44;4959022;28;20071;-82
2022/10/21 07:02:51;;;;;;;17.93;10.90;;;;;;;7.78;100.00;100527.16;4933238;29;20054;-82
2022/10/21 07:05:18;;;;;;;17.90;12.13;;;;;;;7.85;100.00;100515.69;4963372;28;20043;-82
2022/10/21 07:07:44;;;;;;;18.87;11.67;;;;;;;7.86;100.00;100506.91;4917371;28;20043;-83
2022/10/21 07:10:11;;;;;;;19.83;11.10;;;;;;;7.82;100.00;100512.22;4965289;28;20074;-81
2022/10/21 07:12:38;;;;;;;18.87;11.37;;;;;;;7.89;100.00;100504.22;4934809;29;20042;-83
2022/10/21 07:15:05;;;;;;;19.83;11.73;;;;;;;8.04;100.00;100507.56;4965026;28;20489;-82
2022/10/21 07:17:31;;;;;;;18.67;11.47;;;;;;;8.13;100.00;100518.84;4981839;28;20046;-82
2022/10/21 07:19:58;;;;;;;18.40;11.33;;;;;;;8.35;100.00;100516.84;4917680;29;20133;-83
2022/10/21 07:22:24;;;;;;;20.43;11.27;;;;;;;8.50;100.00;100523.66;4935793;29;20047;-82
2022/10/21 07:24:51;;;;;;;18.57;11.30;;;;;;;8.54;100.00;100520.06;4950578;29;20051;-82
2022/10/21 07:27:18;;;;;;;18.03;10.73;;;;;;;8.48;100.00;100514.03;4947256;28;20559;-83
2022/10/21 07:29:44;;;;;;;20.87;11.60;;;;;;;8.71;100.00;100507.53;4950333;29;20070;-83
2022/10/21 07:32:11;;;;;;;18.50;10.87;;;;;;;8.82;100.00;100507.34;4950022;28;20572;-84
2022/10/21 07:34:38;;;;;;;16.77;10.53;;;;;;;8.86;100.00;100508.19;4934106;29;20543;-84
2022/10/21 07:37:04;;;;;;;17.07;10.27;;;;;;;8.98;100.00;100511.47;4949693;29;20149;-85
2022/10/21 07:39:33;;;;;;;16.83;11.37;;;;;;;9.09;100.00;100510.47;4934087;29;20055;-83
2022/10/21 07:41:59;;;;;;;15.45;10.45;;;;;;;9.18;100.00;100510.31;4946309;28;20047;-83
2022/10/21 07:44:26;;;;;;;17.17;10.10;;;;;;;9.23;100.00;100519.84;4918891;29;20098;-84
2022/10/21 07:46:53;;;;;;;15.77;9.63;;;;;;;9.31;100.00;100520.59;4965503;28;20598;-82
2022/10/21 07:49:21;;;;;;;13.15;9.35;;;;;;;9.32;100.00;100514.41;4933228;29;20043;-83
2022/10/21 07:51:52;;;;;;;16.15;9.55;;;;;;;9.31;100.00;100506.53;4930402;29;20114;-83
2022/10/21 07:54:19;;;;;;;15.88;9.85;;;;;;;9.43;100.00;100514.25;4945753;29;20039;-83
2022/10/21 07:56:48;;;;;;;17.27;10.25;;;;;;;9.44;100.00;100517.75;4946363;28;20102;-84
2022/10/21 07:59:17;;;;;;;13.98;9.88;;;;;;;9.42;100.00;100514.28;4917660;29;20416;-84
2022/10/21 08:01:46;;;;;;;13.55;9.10;;;;;;;9.50;100.00;100510.59;4932970;29;20051;-84
2022/10/21 08:04:15;;;;;;;15.10;10.15;;;;;;;9.62;100.00;100512.13;4932622;29;20043;-84
2022/10/21 08:06:43;;;;;;;13.95;10.07;;;;;;;9.78;100.00;100510.06;4925544;29;20422;-84
2022/10/21 08:09:10;;;;;;;15.57;9.85;;;;;;;9.98;100.00;100507.03;4931465;29;20047;-84
2022/10/21 08:11:37;;;;;;;16.38;9.85;;;;;;;9.87;100.00;100518.66;4937420;29;20057;-84
2022/10/21 08:14:06;;;;;;;14.50;8.98;;;;;;;9.97;100.00;100515.84;4949110;28;20043;-83
2022/10/21 08:16:33;;;;;;;13.40;8.88;;;;;;;10.04;100.00;100509.53;4930234;29;20563;-84
2022/10/21 08:18:59;;;;;;;16.77;9.52;;;;;;;10.01;100.00;100515.75;4936328;29;20079;-84
2022/10/21 08:21:27;;;;;;;13.25;8.90;;;;;;;10.14;100.00;100505.81;4941245;29;20075;-83
2022/10/21 08:23:54;;;;;;;13.20;8.50;;;;;;;10.18;100.00;100501.34;4936744;28;20040;-84
2022/10/21 08:26:20;;;;;;;14.27;9.25;;;;;;;10.15;100.00;100504.91;4914415;29;20079;-84
2022/10/21 08:28:47;;;;;;;14.73;9.10;;;;;;;10.16;100.00;100491.66;4930732;29;20551;-84
2022/10/21 08:31:16;;;;;;;13.18;9.00;;;;;;;10.18;100.00;100493.44;4918050;29;20078;-84
2022/10/21 08:33:43;;;;;;;16.15;9.10;;;;;;;10.20;100.00;100499.53;4917250;29;20066;-84
2022/10/21 08:36:16;;;;;;;14.15;8.38;;;;;;;10.13;100.00;100494.38;4948417;28;20059;-83
2022/10/21 08:38:43;;;;;;;13.57;9.10;;;;;;;10.17;100.00;100500.44;4916749;29;20055;-83
2022/10/21 08:41:28;;;;;;;15.10;8.60;;;;;;;10.26;100.00;100494.16;4933650;29;20047;-84
2022/10/21 08:43:57;;;;;;;12.35;8.85;;;;;;;10.18;100.00;100502.22;4930366;29;20036;-84
2022/10/21 08:46:32;;;;;;;13.07;8.43;;;;;;;10.15;100.00;100496.97;4961335;28;20082;-84
2022/10/21 08:49:12;;;;;;;14.48;8.95;;;;;;;10.28;100.00;100487.06;4916559;29;20047;-84
2022/10/21 08:51:43;;;;;;;14.98;8.90;;;;;;;10.24;100.00;100488.88;4918334;29;20058;-84
2022/10/21 08:54:19;;;;;;;13.13;9.05;;;;;;;10.37;100.00;100486.88;4932523;28;20058;-84
2022/10/21 08:56:48;;;;;;;13.73;9.05;;;;;;;10.38;100.00;100480.69;4965068;28;20366;-84
2022/10/21 08:59:20;;;;;;;11.50;8.23;;;;;;;10.37;100.00;100469.25;4917763;29;20067;-83
2022/10/21 09:02:21;;;;;;;11.43;8.07;;;;;;;10.43;100.00;100466.47;4949970;29;20373;-84
2022/10/21 09:05:16;;;;;;;11.82;8.02;;;;;;;10.37;100.00;100477.16;4936316;28;20047;-84
2022/10/21 09:08:13;;;;;;;13.95;8.98;;;;;;;10.59;100.00;100469.59;4965817;28;20043;-84
2022/10/21 09:11:01;;;;;;;13.55;8.27;;;;;;;10.76;100.00;100463.91;4918096;29;20079;-84
2022/10/21 09:13:47;;;;;;;14.40;9.10;;;;;;;10.85;100.00;100469.00;4952659;28;20106;-84
2022/10/21 09:16:32;;;;;;;10.77;7.70;;;;;;;10.99;100.00;100466.00;4915828;29;20055;-83
2022/10/21 09:19:32;;;;;;;13.18;9.00;;;;;;;11.35;100.00;100463.28;4982116;28;20067;-85
2022/10/21 09:22:36;;;;;;;13.30;8.38;;;;;;;11.31;100.00;100451.06;4933939;29;20070;-84
2022/10/21 09:25:39;;;;;;;14.30;8.48;;;;;;;11.50;100.00;100442.59;4934331;29;20408;-83
2022/10/21 09:28:12;;;;;;;14.10;8.55;;;;;;;11.65;100.00;100437.78;4934545;29;20046;-83
2022/10/21 09:30:40;;;;;;;13.18;8.35;;;;;;;11.67;100.00;100438.59;4919609;29;20051;-84
2022/10/21 09:33:16;;;;;;;10.68;8.20;;;;;;;11.80;100.00;100434.75;4953544;29;20047;-84
2022/10/21 09:35:50;;;;;;;13.50;8.18;;;;;;;11.94;100.00;100429.91;4940964;29;20048;-84
2022/10/21 09:38:26;;;;;;;12.00;8.50;;;;;;;11.97;100.00;100431.59;4937344;28;20050;-84
2022/10/21 09:40:58;;;;;;;12.10;8.20;;;;;;;12.03;100.00;100436.72;4937232;29;20043;-83
2022/10/21 09:43:26;;;;;;;11.18;8.02;;;;;;;12.43;100.00;100443.41;4965891;28;20048;-84
2022/10/21 09:45:53;;;;;;;11.48;7.95;;;;;;;12.89;100.00;100435.72;4920638;29;20043;-84
2022/10/21 09:48:32;;;;;;;11.20;7.72;;;;;;;13.23;100.00;100430.16;4951421;28;20047;-84
2022/10/21 09:51:24;;;;;;;11.60;7.72;;;;;;;13.51;100.00;100423.84;4927564;29;20055;-83
2022/10/21 09:53:55;;;;;;;10.93;7.90;;;;;;;13.53;100.00;100422.00;4922292;29;20078;-84
2022/10/21 09:56:48;;;;;;;8.65;7.38;;;;;;;13.39;100.00;100424.31;4933739;29;20071;-85
2022/10/21 09:59:18;;;;;;;10.82;6.80;;;;;;;13.46;100.00;100413.41;4918831;29;20074;-84
2022/10/21 10:01:45;;;;;;;11.52;6.55;;;;;;;13.52;100.00;100421.13;4953823;28;20094;-84
2022/10/21 10:04:22;;;;;;;10.35;7.60;;;;;;;13.76;100.00;100431.78;4936316;29;20047;-84
2022/10/21 10:06:49;;;;;;;11.20;7.30;;;;;;;13.95;100.00;100423.97;4902143;29;20047;-85
2022/10/21 10:09:30;;;;;;;9.45;7.18;;;;;;;14.19;96.01;100416.88;4950521;28;20048;-84
2022/10/21 10:12:03;;;;;;;10.00;6.45;;;;;;;14.25;98.17;100417.50;4918960;29;20048;-84
2022/10/21 10:14:33;;;;;;;11.05;7.07;;;;;;;14.35;96.73;100412.69;4950182;28;20515;-83
2022/10/21 10:17:26;;;;;;;10.32;6.90;;;;;;;14.34;97.42;100421.59;4913277;29;20047;-84
2022/10/21 10:20:07;;;;;;;10.13;7.35;;;;;;;14.47;95.23;100406.06;4953897;29;20039;-84
2022/10/21 10:22:43;;;;;;;10.48;6.90;;;;;;;14.74;98.46;100409.38;4933161;29;20044;-84
2022/10/21 10:25:12;;;;;;;9.38;6.78;;;;;;;15.03;89.10;100402.81;4968882;28;20040;-83
2022/10/21 10:27:52;;;;;;;10.40;6.03;;;;;;;15.02;87.76;100401.94;4936883;29;20401;-84
2022/10/21 10:30:23;;;;;;;7.28;6.57;;;;;;;15.34;88.78;100400.56;4936951;29;20420;-84
2022/10/21 10:32:52;;;;;;;10.00;5.93;;;;;;;15.52;86.07;100396.19;4959762;28;20058;-84
2022/10/21 10:35:25;;;;;;;10.13;6.30;;;;;;;15.54;86.71;100381.00;4921055;29;20040;-84
2022/10/21 10:37:51;;;;;;;10.38;6.03;;;;;;;15.74;89.33;100394.34;4968572;28;20051;-84
2022/10/21 10:40:40;;;;;;;7.85;5.82;;;;;;;15.74;87.22;100394.34;4984222;28;20071;-84
2022/10/21 10:43:23;;;;;;;9.18;5.78;;;;;;;15.68;85.51;100402.59;4936303;29;20055;-84
2022/10/21 10:45:59;;;;;;;8.25;6.40;;;;;;;15.43;86.07;100393.94;4934295;29;20047;-83
2022/10/21 10:48:34;;;;;;;9.57;6.32;;;;;;;15.34;87.80;100411.19;4936157;29;20043;-84
2022/10/21 10:51:05;;;;;;;8.15;6.43;;;;;;;15.21;88.69;100392.22;4952237;28;20043;-83
2022/10/21 10:53:36;;;;;;;8.93;6.40;;;;;;;15.16;88.83;100388.06;4921035;29;20051;-83
2022/10/21 10:56:20;;;;;;;8.85;5.78;;;;;;;15.06;91.73;100392.06;4936381;29;20122;-83
2022/10/21 10:58:53;;;;;;;10.18;6.85;;;;;;;14.86;87.54;100387.56;4920371;29;20062;-83
2022/10/21 11:01:24;;;;;;;8.63;6.53;;;;;;;14.51;90.21;100391.69;4936559;29;20122;-83
2022/10/21 11:03:54;;;;;;;8.50;6.93;;;;;;;14.38;88.95;100380.69;4920874;29;20055;-83
2022/10/21 11:06:29;;;;;;;10.82;6.88;;;;;;;14.33;91.79;100374.69;4954382;28;20051;-84
2022/10/21 11:08:57;;;;;;;8.88;6.05;;;;;;;14.25;94.58;100379.44;4946969;28;20066;-84
2022/10/21 11:11:27;;;;;;;10.20;6.68;;;;;;;14.29;94.28;100383.69;4920184;29;20039;-84
2022/10/21 11:13:54;;;;;;;9.30;6.45;;;;;;;14.15;94.65;100368.31;4947612;28;20044;-83
2022/10/21 11:17:09;;;;;;;9.95;6.70;;;;;;;14.11;94.82;100361.38;4966951;28;20047;-84
2022/10/21 11:19:49;;;;;;;11.30;7.00;;;;;;;13.93;93.95;100357.66;4939135;29;20616;-83
2022/10/21 11:22:30;;;;;;;9.70;6.53;;;;;;;13.95;100.00;100346.97;4951298;29;20043;-84
2022/10/21 11:25:12;;;;;;;10.52;7.32;;;;;;;13.96;100.00;100344.28;4970776;28;20500;-83
2022/10/21 11:27:50;;;;;;;13.18;7.60;;;;;;;13.89;96.72;100344.56;4935572;29;20047;-83
2022/10/21 11:30:20;;;;;;;7.43;6.57;;;;;;;13.83;98.60;100339.50;4935047;29;20050;-84
2022/10/21 11:32:47;;;;;;;12.30;6.97;;;;;;;14.11;98.77;100339.25;4968638;28;20055;-83